Time;durP1;ratioP1;P1;durP2;ratioP2;P2;SDS_P1;SDS_P2;PMS_P1;PMS_P2;Temp;Humidity;BMP_temperature;BMP_pressure;BME280_temperature;BME280_humidity;BME280_pressure;Samples;Min_cycle;Max_cycle;Signal;HPM_P1;HPM_P2
2023/12/09 00:00:18;;;;;;;132.57;38.73;;;;;;;;;;5094128;28;20426;-68
2023/12/09 00:02:45;;;;;;;125.73;37.30;;;;;;;;;;5075769;28;20420;-67
2023/12/09 00:05:11;;;;;;;125.33;39.23;;;;;;;;;;5075555;28;20419;-68
2023/12/09 00:07:38;;;;;;;134.77;40.83;;;;;;;;;;5093400;28;20462;-68
2023/12/09 00:10:05;;;;;;;129.93;37.50;;;;;;;;;;5075529;28;20422;-67
2023/12/09 00:12:32;;;;;;;131.10;39.07;;;;;;;;;;5075709;28;20423;-68
2023/12/09 00:14:59;;;;;;;133.73;40.67;;;;;;;;;;5093511;28;20454;-67
2023/12/09 00:17:26;;;;;;;134.50;40.97;;;;;;;;;;5094800;28;20443;-68
2023/12/09 00:19:52;;;;;;;123.73;38.67;;;;;;;;;;5098030;28;20466;-68
2023/12/09 00:22:19;;;;;;;139.53;41.73;;;;;;;;;;5097528;28;20468;-67
2023/12/09 00:24:45;;;;;;;143.67;42.10;;;;;;;;;;5079866;28;20431;-68
2023/12/09 00:27:12;;;;;;;138.20;39.20;;;;;;;;;;5079493;28;20469;-67
2023/12/09 00:29:39;;;;;;;136.07;41.63;;;;;;;;;;5079551;28;20470;-68
2023/12/09 00:32:23;;;;;;;145.43;41.90;;;;;;;;;;5079789;28;20411;-67
2023/12/09 00:34:50;;;;;;;139.30;40.90;;;;;;;;;;5079313;28;20525;-68
2023/12/09 00:37:16;;;;;;;138.50;40.20;;;;;;;;;;5079518;28;20453;-68
2023/12/09 00:39:43;;;;;;;152.50;41.70;;;;;;;;;;5079331;28;20424;-68
2023/12/09 00:42:10;;;;;;;129.43;38.30;;;;;;;;;;5079510;28;20461;-68
2023/12/09 00:44:54;;;;;;;121.17;36.47;;;;;;;;;;5082191;28;20835;-68
2023/12/09 00:47:21;;;;;;;110.17;33.83;;;;;;;;;;5062315;28;20988;-67
2023/12/09 00:49:48;;;;;;;117.97;37.40;;;;;;;;;;5078569;28;20388;-67
2023/12/09 00:52:14;;;;;;;123.27;37.90;;;;;;;;;;5078959;28;20997;-68
2023/12/09 00:54:41;;;;;;;106.07;32.27;;;;;;;;;;5079167;28;20447;-68
2023/12/09 00:57:08;;;;;;;102.77;29.83;;;;;;;;;;5079410;28;20755;-67
2023/12/09 00:59:34;;;;;;;115.83;37.93;;;;;;;;;;5062568;28;20914;-68
2023/12/09 01:02:01;;;;;;;109.60;35.50;;;;;;;;;;5062386;28;20477;-67
2023/12/09 01:04:27;;;;;;;108.53;36.90;;;;;;;;;;5097235;28;20415;-69
2023/12/09 01:06:54;;;;;;;109.73;34.97;;;;;;;;;;5097173;28;20526;-67
2023/12/09 01:09:21;;;;;;;108.77;35.07;;;;;;;;;;5096599;28;20462;-68
2023/12/09 01:11:47;;;;;;;94.33;30.30;;;;;;;;;;5078897;28;20727;-69
2023/12/09 01:49:39;;;;;;;107.73;34.03;;;;;;;;;;5095685;28;21012;-66
2023/12/09 01:52:06;;;;;;;112.20;36.00;;;;;;;;;;5096266;28;20961;-67
2023/12/09 01:54:33;;;;;;;120.23;37.80;;;;;;;;;;5077634;28;20473;-67
2023/12/09 01:57:00;;;;;;;105.67;37.50;;;;;;;;;;5095729;28;20830;-67
2023/12/09 01:59:26;;;;;;;111.47;36.73;;;;;;;;;;5077836;28;20446;-67
2023/12/09 02:01:53;;;;;;;102.77;35.03;;;;;;;;;;5077882;28;20415;-67
2023/12/09 02:04:20;;;;;;;114.13;36.73;;;;;;;;;;5061088;28;20914;-67
2023/12/09 02:06:47;;;;;;;106.00;34.43;;;;;;;;;;5078040;28;20471;-67
2023/12/09 02:09:14;;;;;;;111.10;35.07;;;;;;;;;;5077673;28;20459;-67
2023/12/09 02:11:50;;;;;;;109.23;34.60;;;;;;;;;;5061445;28;20418;-67
2023/12/09 02:14:21;;;;;;;114.90;35.63;;;;;;;;;;5095973;28;20960;-66
2023/12/09 02:16:52;;;;;;;98.23;32.90;;;;;;;;;;5077646;28;20514;-68
2023/12/09 02:19:37;;;;;;;106.60;35.23;;;;;;;;;;5066113;28;20407;-69
2023/12/09 02:22:05;;;;;;;114.40;34.53;;;;;;;;;;5077659;28;20506;-69
2023/12/09 02:24:32;;;;;;;104.90;35.67;;;;;;;;;;5095283;28;20740;-68
2023/12/09 02:27:02;;;;;;;114.57;33.97;;;;;;;;;;5077788;28;20513;-68
2023/12/09 02:29:30;;;;;;;104.07;33.13;;;;;;;;;;5077112;28;20489;-68
2023/12/09 02:32:14;;;;;;;105.17;34.27;;;;;;;;;;5080369;28;20761;-68
2023/12/09 02:34:41;;;;;;;101.60;34.03;;;;;;;;;;5077477;28;20434;-67
2023/12/09 02:37:25;;;;;;;110.63;35.10;;;;;;;;;;5079734;28;20701;-67
2023/12/09 02:39:52;;;;;;;106.83;32.80;;;;;;;;;;5059408;28;20418;-67
2023/12/09 02:42:39;;;;;;;106.40;35.03;;;;;;;;;;5095121;28;20387;-67
2023/12/09 02:45:06;;;;;;;114.83;35.10;;;;;;;;;;5095312;28;20419;-67
2023/12/09 02:47:33;;;;;;;124.40;37.47;;;;;;;;;;5056797;28;20452;-67
2023/12/09 02:50:00;;;;;;;121.17;35.77;;;;;;;;;;5071959;28;20524;-68
2023/12/09 02:52:26;;;;;;;110.53;35.07;;;;;;;;;;5089684;28;20815;-68
2023/12/09 02:55:10;;;;;;;103.90;32.97;;;;;;;;;;5073719;28;20464;-68
2023/12/09 02:57:37;;;;;;;106.03;34.53;;;;;;;;;;5073204;28;20413;-68
2023/12/09 03:00:05;;;;;;;115.07;35.03;;;;;;;;;;5073439;28;20736;-68
2023/12/09 03:02:32;;;;;;;116.30;36.40;;;;;;;;;;5089257;28;20424;-68
2023/12/09 03:04:59;;;;;;;114.27;34.97;;;;;;;;;;5073961;28;20443;-68
2023/12/09 03:07:25;;;;;;;127.80;38.03;;;;;;;;;;5073299;28;20741;-68
2023/12/09 03:09:52;;;;;;;123.03;37.53;;;;;;;;;;5056382;28;20550;-68
2023/12/09 03:12:19;;;;;;;127.73;38.60;;;;;;;;;;5073672;28;20423;-68
2023/12/09 03:14:45;;;;;;;124.20;36.60;;;;;;;;;;5071991;28;20943;-68
2023/12/09 03:17:12;;;;;;;119.27;34.57;;;;;;;;;;5089684;28;20756;-68
2023/12/09 03:19:38;;;;;;;115.93;36.40;;;;;;;;;;5089419;28;20432;-68
2023/12/09 03:22:23;;;;;;;116.37;35.33;;;;;;;;;;5086747;28;20389;-68
2023/12/09 03:24:50;;;;;;;122.87;35.17;;;;;;;;;;5088749;28;20851;-68
2023/12/09 03:27:16;;;;;;;117.50;32.93;;;;;;;;;;5072559;28;20847;-68
2023/12/09 03:29:43;;;;;;;123.60;33.57;;;;;;;;;;5088974;28;20530;-68
2023/12/09 03:32:09;;;;;;;108.53;33.23;;;;;;;;;;5088946;28;20435;-68
2023/12/09 03:34:54;;;;;;;112.07;33.63;;;;;;;;;;5072957;28;20381;-68
2023/12/09 03:37:20;;;;;;;107.20;33.43;;;;;;;;;;5088479;28;20412;-68
2023/12/09 03:39:47;;;;;;;92.10;25.37;;;;;;;;;;5071658;28;20451;-68
2023/12/09 03:42:14;;;;;;;101.90;32.67;;;;;;;;;;5071994;28;20519;-68
2023/12/09 03:44:40;;;;;;;112.47;33.50;;;;;;;;;;5088739;28;20428;-68
2023/12/09 03:47:24;;;;;;;113.93;33.90;;;;;;;;;;5035357;28;1208221;-68
2023/12/09 03:49:55;;;;;;;106.00;33.07;;;;;;;;;;5059802;28;20216;-68
2023/12/09 03:52:22;;;;;;;112.67;33.23;;;;;;;;;;5059306;28;20430;-70
2023/12/09 03:54:49;;;;;;;98.43;29.23;;;;;;;;;;5076904;28;20423;-68
2023/12/09 03:57:16;;;;;;;107.20;32.03;;;;;;;;;;5094821;28;20423;-68
2023/12/09 04:00:00;;;;;;;102.93;30.63;;;;;;;;;;5078886;28;20378;-68
2023/12/09 04:02:30;;;;;;;106.43;32.17;;;;;;;;;;5093709;28;20408;-68
2023/12/09 04:04:56;;;;;;;97.20;31.73;;;;;;;;;;5075548;28;20428;-68
2023/12/09 04:07:23;;;;;;;105.93;31.40;;;;;;;;;;5059400;28;20414;-68
2023/12/09 04:09:50;;;;;;;98.23;31.40;;;;;;;;;;5058228;28;20517;-68
2023/12/09 04:12:16;;;;;;;100.53;30.53;;;;;;;;;;5059386;28;20415;-68
2023/12/09 04:14:43;;;;;;;101.17;30.80;;;;;;;;;;5093456;28;20950;-68
2023/12/09 04:17:10;;;;;;;106.47;32.20;;;;;;;;;;5093447;28;20944;-68
2023/12/09 04:19:37;;;;;;;102.73;30.83;;;;;;;;;;5075536;28;20811;-68
2023/12/09 04:22:04;;;;;;;101.73;31.63;;;;;;;;;;5059754;28;20435;-68
2023/12/09 04:24:31;;;;;;;101.63;30.17;;;;;;;;;;5075559;28;20907;-68
2023/12/09 04:26:58;;;;;;;108.20;31.00;;;;;;;;;;5093319;28;20419;-68
2023/12/09 04:29:24;;;;;;;80.70;27.23;;;;;;;;;;5075274;28;20513;-68
2023/12/09 04:31:51;;;;;;;97.40;30.33;;;;;;;;;;5059288;28;20769;-68
2023/12/09 04:34:18;;;;;;;104.00;31.10;;;;;;;;;;5075428;28;20423;-68
2023/12/09 04:36:44;;;;;;;106.43;31.93;;;;;;;;;;5075609;28;20443;-68
2023/12/09 04:39:11;;;;;;;96.83;28.40;;;;;;;;;;5075372;28;20813;-68
2023/12/09 04:41:38;;;;;;;97.23;29.63;;;;;;;;;;5092285;28;20419;-68
2023/12/09 04:44:04;;;;;;;106.80;29.77;;;;;;;;;;5058758;28;20926;-68
2023/12/09 04:46:31;;;;;;;94.53;28.67;;;;;;;;;;5075372;28;20423;-68
2023/12/09 04:49:15;;;;;;;92.20;28.97;;;;;;;;;;5075319;28;20467;-68
2023/12/09 04:51:42;;;;;;;87.23;26.27;;;;;;;;;;5058751;28;20769;-69
2023/12/09 04:54:26;;;;;;;102.90;31.27;;;;;;;;;;5075094;28;20498;-69
2023/12/09 04:56:53;;;;;;;100.67;28.30;;;;;;;;;;5092390;28;20740;-69
2023/12/09 04:59:20;;;;;;;106.33;30.33;;;;;;;;;;5075461;28;20431;-69
2023/12/09 05:01:46;;;;;;;95.30;29.67;;;;;;;;;;5092306;28;20419;-69
2023/12/09 05:04:16;;;;;;;98.20;28.90;;;;;;;;;;5061785;28;21001;-67
2023/12/09 05:06:43;;;;;;;100.30;30.57;;;;;;;;;;5078844;28;20423;-69
2023/12/09 05:09:10;;;;;;;91.10;27.20;;;;;;;;;;5079353;28;20454;-70
2023/12/09 05:11:37;;;;;;;93.50;28.53;;;;;;;;;;5097208;28;20427;-71
2023/12/09 05:14:04;;;;;;;99.67;29.17;;;;;;;;;;5062090;28;20446;-68
2023/12/09 05:16:31;;;;;;;96.13;30.77;;;;;;;;;;5078642;28;20423;-70
2023/12/09 05:18:58;;;;;;;93.97;30.13;;;;;;;;;;5079681;28;20435;-69
2023/12/09 05:21:24;;;;;;;100.17;30.47;;;;;;;;;;5097395;28;20899;-69
2023/12/09 05:24:02;;;;;;;99.37;31.00;;;;;;;;;;5097128;28;20392;-69
2023/12/09 05:26:29;;;;;;;94.53;28.23;;;;;;;;;;5096394;28;20476;-69
2023/12/09 05:28:56;;;;;;;100.53;28.67;;;;;;;;;;5095413;28;20455;-69
2023/12/09 05:31:23;;;;;;;92.03;25.97;;;;;;;;;;5061784;28;20758;-69
2023/12/09 05:33:50;;;;;;;105.27;31.43;;;;;;;;;;5096693;28;20430;-69
2023/12/09 05:36:17;;;;;;;110.70;31.13;;;;;;;;;;5078540;28;20416;-70
2023/12/09 05:38:45;;;;;;;102.30;30.70;;;;;;;;;;5078553;28;20438;-68
2023/12/09 05:41:12;;;;;;;102.77;29.37;;;;;;;;;;5096990;28;20461;-69
2023/12/09 05:43:39;;;;;;;103.87;28.50;;;;;;;;;;5096042;28;20415;-69
2023/12/09 05:46:06;;;;;;;109.53;31.03;;;;;;;;;;5077936;28;20423;-67
2023/12/09 05:48:33;;;;;;;109.00;26.80;;;;;;;;;;5077488;28;20487;-68
2023/12/09 05:51:00;;;;;;;88.70;27.17;;;;;;;;;;5095915;28;20435;-68
2023/12/09 05:53:27;;;;;;;105.47;30.13;;;;;;;;;;5096224;28;20427;-68
2023/12/09 05:55:54;;;;;;;93.97;28.27;;;;;;;;;;5096200;28;20891;-68
2023/12/09 05:58:20;;;;;;;103.37;28.87;;;;;;;;;;5078799;28;20435;-69
2023/12/09 06:00:47;;;;;;;109.53;30.80;;;;;;;;;;5096287;28;20894;-69
2023/12/09 06:03:14;;;;;;;105.53;29.17;;;;;;;;;;5077794;28;20478;-70
2023/12/09 06:05:41;;;;;;;104.70;27.80;;;;;;;;;;5094500;28;20415;-69
2023/12/09 06:08:08;;;;;;;107.27;31.43;;;;;;;;;;5077519;28;20940;-69
2023/12/09 06:10:52;;;;;;;101.77;30.63;;;;;;;;;;5066390;28;20415;-69
2023/12/09 06:13:19;;;;;;;101.20;27.90;;;;;;;;;;5094548;28;20426;-69
2023/12/09 06:16:03;;;;;;;108.47;30.07;;;;;;;;;;5079220;28;20427;-70
2023/12/09 06:18:30;;;;;;;103.97;27.93;;;;;;;;;;5077482;28;20412;-70
2023/12/09 06:20:57;;;;;;;100.30;25.93;;;;;;;;;;5060555;28;20944;-70
2023/12/09 06:23:24;;;;;;;110.20;29.97;;;;;;;;;;5060850;28;20427;-69
2023/12/09 06:25:51;;;;;;;98.30;29.53;;;;;;;;;;5077252;28;20439;-69
2023/12/09 06:28:18;;;;;;;102.97;28.30;;;;;;;;;;5077277;28;20426;-68
2023/12/09 06:30:46;;;;;;;112.50;28.70;;;;;;;;;;5060651;28;20554;-69
2023/12/09 06:33:13;;;;;;;109.93;30.37;;;;;;;;;;5060938;28;20423;-68
2023/12/09 06:35:40;;;;;;;105.77;30.20;;;;;;;;;;5061716;28;20759;-70
2023/12/09 06:38:07;;;;;;;118.20;30.93;;;;;;;;;;5077584;28;20567;-70
2023/12/09 06:40:34;;;;;;;113.70;31.53;;;;;;;;;;5095452;28;20438;-70
2023/12/09 06:43:01;;;;;;;114.83;29.20;;;;;;;;;;5077497;28;20506;-70
2023/12/09 06:45:28;;;;;;;94.57;26.73;;;;;;;;;;5077086;28;20538;-69
2023/12/09 06:47:55;;;;;;;115.40;30.07;;;;;;;;;;5060600;28;20554;-69
2023/12/09 06:50:22;;;;;;;118.23;30.83;;;;;;;;;;5094956;28;20473;-70
2023/12/09 06:52:49;;;;;;;120.83;31.67;;;;;;;;;;5094662;28;20510;-69
2023/12/09 06:55:16;;;;;;;119.93;31.53;;;;;;;;;;5060154;28;20903;-70
2023/12/09 06:57:43;;;;;;;109.67;30.47;;;;;;;;;;5060485;28;20518;-70
2023/12/09 07:00:10;;;;;;;112.50;30.37;;;;;;;;;;5077569;28;20427;-70
2023/12/09 07:02:36;;;;;;;103.70;30.00;;;;;;;;;;5094931;28;20429;-70
2023/12/09 07:05:22;;;;;;;96.50;27.13;;;;;;;;;;5063487;28;20451;-69
2023/12/09 07:07:50;;;;;;;118.67;32.40;;;;;;;;;;5077446;28;20510;-69
2023/12/09 07:10:18;;;;;;;120.97;31.30;;;;;;;;;;5077650;28;20451;-69
2023/12/09 07:12:45;;;;;;;106.10;31.33;;;;;;;;;;5060656;28;20916;-69
2023/12/09 07:15:15;;;;;;;127.07;31.93;;;;;;;;;;5060343;28;21026;-69
2023/12/09 07:17:42;;;;;;;115.17;32.50;;;;;;;;;;5076494;28;20427;-67
2023/12/09 07:20:10;;;;;;;115.03;32.53;;;;;;;;;;5076921;28;20519;-68
2023/12/09 07:22:37;;;;;;;123.60;30.87;;;;;;;;;;5077053;28;20434;-68
2023/12/09 07:25:21;;;;;;;104.50;31.37;;;;;;;;;;5079373;28;20388;-68
2023/12/09 07:27:48;;;;;;;125.83;31.60;;;;;;;;;;5077022;28;20415;-67
2023/12/09 07:30:17;;;;;;;126.10;32.30;;;;;;;;;;5094770;28;20451;-68
2023/12/09 07:32:43;;;;;;;115.53;31.17;;;;;;;;;;5060518;28;20505;-69
2023/12/09 07:35:10;;;;;;;124.67;32.70;;;;;;;;;;5094801;28;20461;-68
2023/12/09 07:37:37;;;;;;;121.70;28.40;;;;;;;;;;5094639;28;20412;-68
2023/12/09 07:40:06;;;;;;;120.60;30.23;;;;;;;;;;5076197;28;20426;-68
2023/12/09 07:42:33;;;;;;;124.97;31.30;;;;;;;;;;5059890;28;20447;-68
2023/12/09 07:45:00;;;;;;;130.20;33.33;;;;;;;;;;5092961;28;20459;-68
2023/12/09 07:47:26;;;;;;;145.10;35.73;;;;;;;;;;5092898;28;20483;-68
2023/12/09 07:49:53;;;;;;;139.47;37.53;;;;;;;;;;5068933;28;20570;-67
2023/12/09 07:52:21;;;;;;;123.23;32.47;;;;;;;;;;5055767;28;20424;-68
2023/12/09 07:54:48;;;;;;;122.33;32.67;;;;;;;;;;5072540;28;20430;-67
2023/12/09 07:57:15;;;;;;;125.47;33.17;;;;;;;;;;5072526;28;20508;-68
2023/12/09 07:59:42;;;;;;;117.77;29.17;;;;;;;;;;5072662;28;20482;-67
2023/12/09 08:06:08;;;;;;;119.43;30.90;;;;;;;;;;5073577;28;20376;-68
2023/12/09 08:08:35;;;;;;;132.67;32.40;;;;;;;;;;5072984;28;20432;-68
2023/12/09 08:11:19;;;;;;;138.63;32.53;;;;;;;;;;5073672;28;20847;-67
2023/12/09 08:13:46;;;;;;;127.00;32.07;;;;;;;;;;5055752;28;20420;-67
2023/12/09 08:16:13;;;;;;;116.20;28.67;;;;;;;;;;5055535;28;20491;-68
2023/12/09 08:18:42;;;;;;;119.90;31.43;;;;;;;;;;5073329;28;20431;-68
2023/12/09 08:21:10;;;;;;;129.73;33.77;;;;;;;;;;5072065;28;20934;-67
2023/12/09 08:23:38;;;;;;;123.93;33.43;;;;;;;;;;5056131;28;20473;-68
2023/12/09 08:26:05;;;;;;;114.90;30.23;;;;;;;;;;5072481;28;20420;-68
2023/12/09 08:28:31;;;;;;;140.53;37.73;;;;;;;;;;5072521;28;20914;-67
2023/12/09 08:31:16;;;;;;;140.53;36.60;;;;;;;;;;5072586;28;20482;-68
2023/12/09 08:33:43;;;;;;;141.73;37.40;;;;;;;;;;5072061;28;21006;-68
2023/12/09 08:36:27;;;;;;;109.57;32.27;;;;;;;;;;5073245;28;20530;-68
2023/12/09 08:38:54;;;;;;;138.50;34.57;;;;;;;;;;5086075;28;20454;-68
2023/12/09 08:41:21;;;;;;;126.00;33.03;;;;;;;;;;5063006;28;20438;-67
2023/12/09 08:43:52;;;;;;;121.10;29.60;;;;;;;;;;5079952;28;20437;-68
2023/12/09 08:46:19;;;;;;;124.07;33.07;;;;;;;;;;5097572;28;20457;-67
2023/12/09 08:48:47;;;;;;;119.23;31.83;;;;;;;;;;5097137;28;20442;-67
2023/12/09 08:51:14;;;;;;;123.53;32.30;;;;;;;;;;5079428;28;20496;-67
2023/12/09 08:53:41;;;;;;;117.40;32.83;;;;;;;;;;5097808;28;20424;-67
2023/12/09 08:56:08;;;;;;;129.07;39.23;;;;;;;;;;5062677;28;20425;-67
2023/12/09 08:58:36;;;;;;;130.33;34.27;;;;;;;;;;5097263;28;20470;-67
2023/12/09 09:01:03;;;;;;;125.07;34.77;;;;;;;;;;5097249;28;20472;-67
2023/12/09 09:03:30;;;;;;;117.50;31.70;;;;;;;;;;5094005;28;20468;-68
2023/12/09 09:09:56;;;;;;;123.10;31.53;;;;;;;;;;5067562;28;20475;-68
2023/12/09 09:12:23;;;;;;;123.97;33.87;;;;;;;;;;5033235;28;20428;-68
2023/12/09 09:14:51;;;;;;;106.97;30.37;;;;;;;;;;5049929;28;20452;-67
2023/12/09 09:17:18;;;;;;;111.63;29.97;;;;;;;;;;5033249;28;20432;-68
2023/12/09 09:19:44;;;;;;;114.23;31.67;;;;;;;;;;5049361;28;20432;-67
2023/12/09 09:22:12;;;;;;;115.33;32.03;;;;;;;;;;5049627;28;20427;-67
2023/12/09 09:24:38;;;;;;;117.73;33.23;;;;;;;;;;5066341;28;21924;-68
2023/12/09 09:27:05;;;;;;;123.23;34.83;;;;;;;;;;5032391;28;20432;-68
2023/12/09 09:29:32;;;;;;;110.70;32.73;;;;;;;;;;5066875;28;20812;-68
2023/12/09 09:32:04;;;;;;;121.17;35.33;;;;;;;;;;5065696;28;20436;-68
2023/12/09 09:34:31;;;;;;;123.80;33.90;;;;;;;;;;5048926;28;20432;-70
2023/12/09 09:36:58;;;;;;;115.90;34.40;;;;;;;;;;5048949;28;20416;-68
2023/12/09 09:39:24;;;;;;;128.23;35.83;;;;;;;;;;5048269;28;20447;-68
2023/12/09 09:41:58;;;;;;;112.97;31.93;;;;;;;;;;5070375;28;20442;-69
2023/12/09 09:44:26;;;;;;;133.43;34.87;;;;;;;;;;5067833;28;20428;-69
2023/12/09 09:46:55;;;;;;;114.80;32.60;;;;;;;;;;5068316;28;20495;-69
2023/12/09 09:49:22;;;;;;;139.57;36.70;;;;;;;;;;5067539;28;20455;-69
2023/12/09 09:51:52;;;;;;;111.60;31.57;;;;;;;;;;5052038;28;20423;-69
2023/12/09 09:54:21;;;;;;;109.97;31.53;;;;;;;;;;5068271;28;20439;-68
2023/12/09 09:56:49;;;;;;;140.63;36.23;;;;;;;;;;5051384;28;20545;-69
2023/12/09 09:59:17;;;;;;;114.23;29.27;;;;;;;;;;5068119;28;20435;-69
2023/12/09 10:01:44;;;;;;;119.73;31.43;;;;;;;;;;5051689;28;20513;-67
2023/12/09 10:04:12;;;;;;;150.57;39.17;;;;;;;;;;5071353;28;20450;-68
2023/12/09 10:06:42;;;;;;;124.93;32.83;;;;;;;;;;5059811;28;20435;-69
2023/12/09 10:09:09;;;;;;;129.53;33.23;;;;;;;;;;5106432;28;20460;-70
2023/12/09 10:11:36;;;;;;;113.23;33.20;;;;;;;;;;5088039;28;20592;-68
2023/12/09 10:14:03;;;;;;;115.17;32.47;;;;;;;;;;5106513;28;20458;-69
2023/12/09 10:16:33;;;;;;;120.13;32.40;;;;;;;;;;5106214;28;22279;-70
2023/12/09 10:19:00;;;;;;;106.87;29.57;;;;;;;;;;5106219;28;20423;-68
2023/12/09 10:21:27;;;;;;;108.10;33.03;;;;;;;;;;5087942;28;20483;-68
2023/12/09 10:23:54;;;;;;;119.43;31.63;;;;;;;;;;5106486;28;20500;-67
2023/12/09 10:26:21;;;;;;;104.73;31.53;;;;;;;;;;5088347;28;20427;-67
2023/12/09 10:28:47;;;;;;;120.67;35.00;;;;;;;;;;5087836;28;20822;-68
2023/12/09 10:31:15;;;;;;;119.03;32.97;;;;;;;;;;5087572;28;20458;-68
2023/12/09 10:33:44;;;;;;;112.13;31.03;;;;;;;;;;5087813;28;20430;-68
2023/12/09 10:36:12;;;;;;;123.10;32.03;;;;;;;;;;5106193;28;20472;-68
2023/12/09 10:38:42;;;;;;;110.57;32.40;;;;;;;;;;5105957;28;20424;-68
2023/12/09 10:41:13;;;;;;;117.87;32.60;;;;;;;;;;5105794;28;20437;-68
2023/12/09 10:43:40;;;;;;;102.80;28.83;;;;;;;;;;5087469;28;20430;-68
2023/12/09 10:46:08;;;;;;;104.60;32.00;;;;;;;;;;5105767;28;20441;-68
2023/12/09 10:48:35;;;;;;;114.80;31.83;;;;;;;;;;5083685;28;20791;-68
2023/12/09 10:51:03;;;;;;;110.07;29.70;;;;;;;;;;5100728;28;20474;-67
2023/12/09 10:53:46;;;;;;;103.60;31.03;;;;;;;;;;5085215;28;21324;-67
2023/12/09 10:56:13;;;;;;;114.33;31.13;;;;;;;;;;5083671;28;20424;-67
2023/12/09 10:58:40;;;;;;;123.37;34.57;;;;;;;;;;5083877;28;20565;-68
2023/12/09 11:01:07;;;;;;;124.23;38.47;;;;;;;;;;5082809;28;20419;-68
2023/12/09 11:03:35;;;;;;;129.67;38.33;;;;;;;;;;5083601;28;20430;-67
2023/12/09 11:06:05;;;;;;;111.30;34.27;;;;;;;;;;5085034;28;20546;-68
2023/12/09 11:08:34;;;;;;;109.97;32.40;;;;;;;;;;5072274;28;20803;-68
2023/12/09 11:11:04;;;;;;;119.07;36.10;;;;;;;;;;5083433;28;20462;-68
2023/12/09 11:13:35;;;;;;;107.80;31.67;;;;;;;;;;5083450;28;20812;-69
2023/12/09 11:16:09;;;;;;;108.20;33.07;;;;;;;;;;5084780;28;20447;-69
2023/12/09 11:18:38;;;;;;;109.73;33.90;;;;;;;;;;5085035;28;20932;-68
2023/12/09 11:21:04;;;;;;;119.33;34.37;;;;;;;;;;5082999;28;20452;-66
2023/12/09 11:23:33;;;;;;;97.47;31.17;;;;;;;;;;5083245;28;20465;-67
2023/12/09 11:26:01;;;;;;;98.77;29.87;;;;;;;;;;5083681;28;20473;-68
2023/12/09 11:28:28;;;;;;;104.53;33.00;;;;;;;;;;5085107;28;20416;-67
2023/12/09 11:30:55;;;;;;;107.73;32.70;;;;;;;;;;5084941;28;20494;-69
2023/12/09 11:33:22;;;;;;;125.97;40.37;;;;;;;;;;5085044;28;20407;-68
2023/12/09 11:35:49;;;;;;;124.23;37.37;;;;;;;;;;5083808;28;20418;-67
2023/12/09 11:38:16;;;;;;;109.17;31.63;;;;;;;;;;5085020;28;20950;-67
2023/12/09 11:40:43;;;;;;;103.67;33.67;;;;;;;;;;5085190;28;21001;-67
2023/12/09 11:43:10;;;;;;;115.40;37.67;;;;;;;;;;5092090;28;20419;-68
2023/12/09 11:45:37;;;;;;;97.13;32.57;;;;;;;;;;5076348;28;20457;-68
2023/12/09 11:48:04;;;;;;;97.43;31.97;;;;;;;;;;5102677;28;20553;-68
2023/12/09 11:50:32;;;;;;;114.23;36.30;;;;;;;;;;5114835;28;20541;-67
2023/12/09 11:52:59;;;;;;;99.97;31.57;;;;;;;;;;5096218;28;20425;-68
2023/12/09 11:55:27;;;;;;;109.57;35.60;;;;;;;;;;5114150;28;20456;-67
2023/12/09 11:57:54;;;;;;;123.60;35.57;;;;;;;;;;5062893;28;20434;-67
2023/12/09 12:00:22;;;;;;;115.67;33.23;;;;;;;;;;5114615;28;20426;-68
2023/12/09 12:02:49;;;;;;;99.83;32.73;;;;;;;;;;5113883;28;20892;-68
2023/12/09 12:05:16;;;;;;;109.10;33.03;;;;;;;;;;5079374;28;20439;-68
2023/12/09 12:07:43;;;;;;;106.80;32.63;;;;;;;;;;5095995;28;20430;-68
2023/12/09 12:10:10;;;;;;;115.67;35.40;;;;;;;;;;5079470;28;20473;-68
2023/12/09 12:12:36;;;;;;;100.03;32.60;;;;;;;;;;5080901;28;20422;-68
2023/12/09 12:15:04;;;;;;;117.50;35.30;;;;;;;;;;5118488;28;20453;-68
2023/12/09 12:17:38;;;;;;;115.13;35.63;;;;;;;;;;5118598;28;20505;-68
2023/12/09 12:20:07;;;;;;;115.77;33.53;;;;;;;;;;5119192;28;20422;-68
2023/12/09 12:22:34;;;;;;;115.73;34.13;;;;;;;;;;5118608;28;20419;-68
2023/12/09 12:25:04;;;;;;;115.27;35.10;;;;;;;;;;5100275;28;20454;-68
2023/12/09 12:27:34;;;;;;;128.40;37.77;;;;;;;;;;5118215;28;20426;-68
2023/12/09 12:30:03;;;;;;;136.47;41.27;;;;;;;;;;5100435;28;20892;-69
2023/12/09 12:32:35;;;;;;;117.73;38.37;;;;;;;;;;5083908;28;20450;-69
2023/12/09 12:35:06;;;;;;;109.37;34.07;;;;;;;;;;5100871;28;20739;-68
2023/12/09 12:37:33;;;;;;;120.27;37.00;;;;;;;;;;5100402;28;20426;-68
2023/12/09 12:40:00;;;;;;;107.03;35.83;;;;;;;;;;5118008;28;20418;-68
2023/12/09 12:42:27;;;;;;;98.00;33.40;;;;;;;;;;5099760;28;20448;-68
2023/12/09 12:44:55;;;;;;;107.00;33.90;;;;;;;;;;5100166;28;20426;-69
2023/12/09 12:47:21;;;;;;;114.47;34.03;;;;;;;;;;5100246;28;20417;-69
2023/12/09 12:49:48;;;;;;;100.53;31.30;;;;;;;;;;5100174;28;20411;-68
2023/12/09 12:52:33;;;;;;;110.03;33.87;;;;;;;;;;5085781;28;20757;-68
2023/12/09 12:55:00;;;;;;;102.30;33.30;;;;;;;;;;5099857;28;20419;-69
2023/12/09 12:57:26;;;;;;;109.10;34.00;;;;;;;;;;5099616;28;20415;-68
2023/12/09 12:59:54;;;;;;;101.53;33.03;;;;;;;;;;5117726;28;20938;-68
2023/12/09 13:02:29;;;;;;;102.57;32.03;;;;;;;;;;5099696;28;20463;-68
2023/12/09 13:04:57;;;;;;;98.13;31.00;;;;;;;;;;5117224;28;20505;-68
2023/12/09 13:07:24;;;;;;;103.07;32.23;;;;;;;;;;5117463;28;20418;-68
2023/12/09 13:09:51;;;;;;;110.63;33.40;;;;;;;;;;5117569;28;20418;-68
2023/12/09 13:12:18;;;;;;;109.30;34.50;;;;;;;;;;5098999;28;20460;-68
2023/12/09 13:14:45;;;;;;;102.20;33.13;;;;;;;;;;5100253;28;20808;-68
2023/12/09 13:17:12;;;;;;;106.50;33.77;;;;;;;;;;5117203;28;20441;-68
2023/12/09 13:19:39;;;;;;;98.07;30.30;;;;;;;;;;5099488;28;20475;-68
2023/12/09 13:22:07;;;;;;;98.07;32.63;;;;;;;;;;5099371;28;20426;-68
2023/12/09 13:24:34;;;;;;;110.30;32.23;;;;;;;;;;5098313;28;20419;-68
2023/12/09 13:27:01;;;;;;;103.73;33.47;;;;;;;;;;5099441;28;20458;-68
2023/12/09 13:29:28;;;;;;;138.87;43.63;;;;;;;;;;5116806;28;20417;-68
2023/12/09 13:35:48;;;;;;;104.83;34.00;;;;;;;;;;5096546;28;20577;-68
2023/12/09 13:38:15;;;;;;;107.20;34.07;;;;;;;;;;5095971;28;20485;-68
2023/12/09 13:41:00;;;;;;;108.77;34.30;;;;;;;;;;5081112;28;20878;-68
2023/12/09 13:43:27;;;;;;;114.73;37.57;;;;;;;;;;5062328;28;20465;-68
2023/12/09 13:45:54;;;;;;;113.93;37.57;;;;;;;;;;5096327;28;20476;-68
2023/12/09 13:48:21;;;;;;;119.37;36.90;;;;;;;;;;5078187;28;20456;-68
2023/12/09 13:50:48;;;;;;;117.10;35.67;;;;;;;;;;5095989;28;20462;-67
2023/12/09 13:53:15;;;;;;;113.97;34.97;;;;;;;;;;5077963;28;20469;-68
2023/12/09 13:55:41;;;;;;;115.23;34.20;;;;;;;;;;5078376;28;20423;-68
2023/12/09 13:58:08;;;;;;;108.93;31.57;;;;;;;;;;5061581;28;20426;-67
2023/12/09 14:00:35;;;;;;;117.20;35.50;;;;;;;;;;5095962;28;20426;-68
2023/12/09 14:03:02;;;;;;;124.50;35.17;;;;;;;;;;5061639;28;20411;-69
2023/12/09 14:05:30;;;;;;;108.77;34.40;;;;;;;;;;5078515;28;20436;-70
2023/12/09 14:07:57;;;;;;;106.10;34.30;;;;;;;;;;5061563;28;20894;-67
2023/12/09 14:10:24;;;;;;;120.23;38.27;;;;;;;;;;5077727;28;20423;-69
2023/12/09 14:12:51;;;;;;;106.87;35.70;;;;;;;;;;5077881;28;20481;-69
2023/12/09 14:15:18;;;;;;;112.67;34.93;;;;;;;;;;5095599;28;20435;-69
2023/12/09 14:17:44;;;;;;;111.43;35.73;;;;;;;;;;5077881;28;20431;-67
2023/12/09 14:20:14;;;;;;;122.23;36.47;;;;;;;;;;5061937;28;20785;-69
2023/12/09 14:22:45;;;;;;;106.00;33.20;;;;;;;;;;5095900;28;20388;-69
2023/12/09 14:25:13;;;;;;;95.43;31.87;;;;;;;;;;5095707;28;20450;-70
2023/12/09 14:27:40;;;;;;;108.70;35.13;;;;;;;;;;5077703;28;20520;-67
2023/12/09 14:30:10;;;;;;;107.43;33.63;;;;;;;;;;5061743;28;20458;-67
2023/12/09 14:32:38;;;;;;;96.87;31.37;;;;;;;;;;5077936;28;20794;-67
2023/12/09 14:35:06;;;;;;;95.63;32.63;;;;;;;;;;5077049;28;20416;-68
2023/12/09 14:37:34;;;;;;;94.53;31.87;;;;;;;;;;5077071;28;20423;-68
2023/12/09 14:40:03;;;;;;;93.60;31.33;;;;;;;;;;5076424;28;20489;-68
2023/12/09 14:42:30;;;;;;;88.13;31.97;;;;;;;;;;5094908;28;20431;-68
2023/12/09 14:44:57;;;;;;;95.67;32.03;;;;;;;;;;5077171;28;20418;-68
2023/12/09 14:47:24;;;;;;;97.87;30.93;;;;;;;;;;5060321;28;20482;-69
2023/12/09 14:49:51;;;;;;;81.43;27.67;;;;;;;;;;5077570;28;20902;-68
2023/12/09 14:52:18;;;;;;;76.33;29.00;;;;;;;;;;5076869;28;20467;-68
2023/12/09 14:54:45;;;;;;;75.87;27.73;;;;;;;;;;5076774;28;20419;-68
2023/12/09 14:57:12;;;;;;;67.67;28.30;;;;;;;;;;5077208;28;20423;-68
2023/12/09 14:59:38;;;;;;;76.17;29.53;;;;;;;;;;5043595;28;20933;-68